sensor_id;sensor_type;location;lat;lon;timestamp;temperature;humidity
10231;DHT22;62604;49.432;8.680;2024-01-30T00:02:18;3.30;99.90
10231;DHT22;62604;49.432;8.680;2024-01-30T00:04:45;3.30;99.90
10231;DHT22;62604;49.432;8.680;2024-01-30T00:07:12;3.30;99.90
10231;DHT22;62604;49.432;8.680;2024-01-30T00:09:40;3.30;99.90
10231;DHT22;62604;49.432;8.680;2024-01-30T00:12:07;3.30;99.90
10231;DHT22;62604;49.432;8.680;2024-01-30T00:14:34;3.20;99.90
10231;DHT22;62604;49.432;8.680;2024-01-30T00:17:01;3.30;99.90
10231;DHT22;62604;49.432;8.680;2024-01-30T00:19:28;3.20;99.90
10231;DHT22;62604;49.432;8.680;2024-01-30T00:21:55;3.30;99.90
10231;DHT22;62604;49.432;8.680;2024-01-30T00:24:22;3.20;99.90
10231;DHT22;62604;49.432;8.680;2024-01-30T00:26:50;3.20;99.90
10231;DHT22;62604;49.432;8.680;2024-01-30T00:29:19;3.20;99.90
10231;DHT22;62604;49.432;8.680;2024-01-30T00:31:47;3.20;99.90
10231;DHT22;62604;49.432;8.680;2024-01-30T00:34:14;3.20;99.90
10231;DHT22;62604;49.432;8.680;2024-01-30T00:36:41;3.20;99.90
10231;DHT22;62604;49.432;8.680;2024-01-30T00:39:08;3.10;99.90
10231;DHT22;62604;49.432;8.680;2024-01-30T00:41:35;3.10;99.90
10231;DHT22;62604;49.432;8.680;2024-01-30T00:44:04;3.10;99.90
10231;DHT22;62604;49.432;8.680;2024-01-30T00:46:31;3.10;99.90
10231;DHT22;62604;49.432;8.680;2024-01-30T00:48:58;3.10;99.90
10231;DHT22;62604;49.432;8.680;2024-01-30T00:51:25;3.10;99.90
10231;DHT22;62604;49.432;8.680;2024-01-30T00:53:52;3.10;99.90
10231;DHT22;62604;49.432;8.680;2024-01-30T00:56:19;3.10;99.90
10231;DHT22;62604;49.432;8.680;2024-01-30T00:58:46;3.00;99.90
10231;DHT22;62604;49.432;8.680;2024-01-30T01:01:15;3.00;99.90
10231;DHT22;62604;49.432;8.680;2024-01-30T01:03:42;3.00;99.90
10231;DHT22;62604;49.432;8.680;2024-01-30T01:06:10;3.10;99.90
10231;DHT22;62604;49.432;8.680;2024-01-30T01:08:37;3.10;99.90
10231;DHT22;62604;49.432;8.680;2024-01-30T01:11:04;3.00;99.90
10231;DHT22;62604;49.432;8.680;2024-01-30T01:13:31;3.00;99.90
10231;DHT22;62604;49.432;8.680;2024-01-30T01:15:58;3.00;99.90
10231;DHT22;62604;49.432;8.680;2024-01-30T01:18:26;3.00;99.90
10231;DHT22;62604;49.432;8.680;2024-01-30T01:20:53;3.00;99.90
10231;DHT22;62604;49.432;8.680;2024-01-30T01:23:20;3.00;99.90
10231;DHT22;62604;49.432;8.680;2024-01-30T01:25:47;3.00;99.90
10231;DHT22;62604;49.432;8.680;2024-01-30T01:28:14;3.00;99.90
10231;DHT22;62604;49.432;8.680;2024-01-30T01:30:41;3.00;99.90
10231;DHT22;62604;49.432;8.680;2024-01-30T01:33:08;3.00;99.90
10231;DHT22;62604;49.432;8.680;2024-01-30T01:35:37;3.00;99.90
10231;DHT22;62604;49.432;8.680;2024-01-30T01:38:04;3.00;99.90
10231;DHT22;62604;49.432;8.680;2024-01-30T01:40:31;2.90;99.90
10231;DHT22;62604;49.432;8.680;2024-01-30T01:42:58;2.90;99.90
10231;DHT22;62604;49.432;8.680;2024-01-30T01:45:26;3.00;99.90
10231;DHT22;62604;49.432;8.680;2024-01-30T01:47:53;3.00;99.90
10231;DHT22;62604;49.432;8.680;2024-01-30T01:50:21;3.00;99.90
10231;DHT22;62604;49.432;8.680;2024-01-30T01:52:50;3.00;99.90
10231;DHT22;62604;49.432;8.680;2024-01-30T01:55:19;3.00;99.90
10231;DHT22;62604;49.432;8.680;2024-01-30T01:57:47;3.00;99.90
10231;DHT22;62604;49.432;8.680;2024-01-30T02:00:15;3.00;99.90
10231;DHT22;62604;49.432;8.680;2024-01-30T02:02:43;3.00;99.90
10231;DHT22;62604;49.432;8.680;2024-01-30T02:05:12;3.00;99.90
10231;DHT22;62604;49.432;8.680;2024-01-30T02:07:39;2.90;99.90
10231;DHT22;62604;49.432;8.680;2024-01-30T02:10:08;2.90;99.90
10231;DHT22;62604;49.432;8.680;2024-01-30T02:12:35;2.90;99.90
10231;DHT22;62604;49.432;8.680;2024-01-30T02:15:04;3.00;99.90
10231;DHT22;62604;49.432;8.680;2024-01-30T02:20:05;3.00;99.90
10231;DHT22;62604;49.432;8.680;2024-01-30T02:22:36;3.00;99.90
10231;DHT22;62604;49.432;8.680;2024-01-30T02:25:06;3.00;99.90
10231;DHT22;62604;49.432;8.680;2024-01-30T02:27:34;3.10;99.90
10231;DHT22;62604;49.432;8.680;2024-01-30T02:30:01;3.10;99.90
10231;DHT22;62604;49.432;8.680;2024-01-30T02:32:28;3.10;99.90
10231;DHT22;62604;49.432;8.680;2024-01-30T02:34:55;3.10;99.90
10231;DHT22;62604;49.432;8.680;2024-01-30T02:37:22;3.10;99.90
10231;DHT22;62604;49.432;8.680;2024-01-30T02:39:50;3.10;99.90
10231;DHT22;62604;49.432;8.680;2024-01-30T02:42:17;3.10;99.90
10231;DHT22;62604;49.432;8.680;2024-01-30T02:44:44;3.10;99.90
10231;DHT22;62604;49.432;8.680;2024-01-30T02:47:12;3.10;99.90
10231;DHT22;62604;49.432;8.680;2024-01-30T02:49:39;3.10;99.90
10231;DHT22;62604;49.432;8.680;2024-01-30T02:52:06;3.10;99.90
10231;DHT22;62604;49.432;8.680;2024-01-30T02:54:33;3.20;99.90
10231;DHT22;62604;49.432;8.680;2024-01-30T02:57:01;3.20;99.90
10231;DHT22;62604;49.432;8.680;2024-01-30T02:59:28;3.20;99.90
10231;DHT22;62604;49.432;8.680;2024-01-30T03:01:55;3.30;99.90
10231;DHT22;62604;49.432;8.680;2024-01-30T03:04:22;3.40;99.90
10231;DHT22;62604;49.432;8.680;2024-01-30T03:06:49;3.50;99.90
10231;DHT22;62604;49.432;8.680;2024-01-30T03:09:16;3.50;99.90
10231;DHT22;62604;49.432;8.680;2024-01-30T03:11:44;3.60;99.90
10231;DHT22;62604;49.432;8.680;2024-01-30T03:14:12;3.60;99.90
10231;DHT22;62604;49.432;8.680;2024-01-30T03:16:39;3.70;99.90
10231;DHT22;62604;49.432;8.680;2024-01-30T03:19:07;3.70;99.90
10231;DHT22;62604;49.432;8.680;2024-01-30T03:21:34;3.80;99.90
10231;DHT22;62604;49.432;8.680;2024-01-30T03:24:01;3.90;99.90
10231;DHT22;62604;49.432;8.680;2024-01-30T03:26:28;4.00;99.90
10231;DHT22;62604;49.432;8.680;2024-01-30T03:28:55;4.20;99.90
10231;DHT22;62604;49.432;8.680;2024-01-30T03:31:24;4.30;99.90
10231;DHT22;62604;49.432;8.680;2024-01-30T03:33:51;4.50;99.90
10231;DHT22;62604;49.432;8.680;2024-01-30T03:36:18;4.60;99.90
10231;DHT22;62604;49.432;8.680;2024-01-30T03:38:45;4.60;99.90
10231;DHT22;62604;49.432;8.680;2024-01-30T03:41:12;4.70;99.90
10231;DHT22;62604;49.432;8.680;2024-01-30T03:43:38;4.70;99.90
10231;DHT22;62604;49.432;8.680;2024-01-30T03:46:05;4.70;99.90
10231;DHT22;62604;49.432;8.680;2024-01-30T03:48:35;4.70;99.90
10231;DHT22;62604;49.432;8.680;2024-01-30T03:51:03;4.80;99.90
10231;DHT22;62604;49.432;8.680;2024-01-30T03:53:30;4.90;99.90
10231;DHT22;62604;49.432;8.680;2024-01-30T03:55:57;5.00;99.90
10231;DHT22;62604;49.432;8.680;2024-01-30T03:58:24;5.10;99.90
10231;DHT22;62604;49.432;8.680;2024-01-30T04:00:51;5.20;99.90
10231;DHT22;62604;49.432;8.680;2024-01-30T04:03:18;5.40;99.90
10231;DHT22;62604;49.432;8.680;2024-01-30T04:05:46;5.40;99.90
10231;DHT22;62604;49.432;8.680;2024-01-30T04:08:13;5.50;99.90
10231;DHT22;62604;49.432;8.680;2024-01-30T04:10:40;5.50;99.90
10231;DHT22;62604;49.432;8.680;2024-01-30T04:13:07;5.50;99.90
10231;DHT22;62604;49.432;8.680;2024-01-30T04:15:34;5.50;99.90
10231;DHT22;62604;49.432;8.680;2024-01-30T04:18:01;5.50;99.90
10231;DHT22;62604;49.432;8.680;2024-01-30T04:20:29;5.50;99.90
10231;DHT22;62604;49.432;8.680;2024-01-30T04:22:58;5.40;99.90
10231;DHT22;62604;49.432;8.680;2024-01-30T04:25:25;5.50;99.90
10231;DHT22;62604;49.432;8.680;2024-01-30T04:27:52;5.50;99.90
10231;DHT22;62604;49.432;8.680;2024-01-30T04:30:19;5.60;99.90
10231;DHT22;62604;49.432;8.680;2024-01-30T04:32:46;5.60;99.90
10231;DHT22;62604;49.432;8.680;2024-01-30T04:35:12;5.70;99.90
10231;DHT22;62604;49.432;8.680;2024-01-30T04:37:40;5.70;99.90
10231;DHT22;62604;49.432;8.680;2024-01-30T04:40:09;5.70;99.80
10231;DHT22;62604;49.432;8.680;2024-01-30T04:42:36;5.80;99.90
10231;DHT22;62604;49.432;8.680;2024-01-30T04:45:03;5.70;99.90
10231;DHT22;62604;49.432;8.680;2024-01-30T04:47:30;5.70;99.60
10231;DHT22;62604;49.432;8.680;2024-01-30T04:49:57;5.70;99.80
10231;DHT22;62604;49.432;8.680;2024-01-30T04:52:24;5.60;99.90
10231;DHT22;62604;49.432;8.680;2024-01-30T04:54:51;5.60;99.90
10231;DHT22;62604;49.432;8.680;2024-01-30T04:57:22;5.50;99.30
10231;DHT22;62604;49.432;8.680;2024-01-30T04:59:50;5.50;99.00
10231;DHT22;62604;49.432;8.680;2024-01-30T05:02:19;5.50;98.70
10231;DHT22;62604;49.432;8.680;2024-01-30T05:04:46;5.40;99.00
10231;DHT22;62604;49.432;8.680;2024-01-30T05:07:13;5.40;99.40
10231;DHT22;62604;49.432;8.680;2024-01-30T05:09:40;5.30;99.80
10231;DHT22;62604;49.432;8.680;2024-01-30T05:12:07;5.20;99.90
10231;DHT22;62604;49.432;8.680;2024-01-30T05:14:37;5.20;99.90
10231;DHT22;62604;49.432;8.680;2024-01-30T05:17:04;5.20;99.90
10231;DHT22;62604;49.432;8.680;2024-01-30T05:19:31;5.20;99.90
10231;DHT22;62604;49.432;8.680;2024-01-30T05:21:58;5.10;99.90
10231;DHT22;62604;49.432;8.680;2024-01-30T05:24:25;5.10;99.90
10231;DHT22;62604;49.432;8.680;2024-01-30T05:26:53;5.10;99.90
10231;DHT22;62604;49.432;8.680;2024-01-30T05:29:20;5.20;99.90
10231;DHT22;62604;49.432;8.680;2024-01-30T05:31:49;5.10;99.90
10231;DHT22;62604;49.432;8.680;2024-01-30T05:34:16;5.10;99.90
10231;DHT22;62604;49.432;8.680;2024-01-30T05:36:43;5.10;99.90
10231;DHT22;62604;49.432;8.680;2024-01-30T05:39:10;5.10;99.90
10231;DHT22;62604;49.432;8.680;2024-01-30T05:41:37;5.10;99.90
10231;DHT22;62604;49.432;8.680;2024-01-30T05:44:04;5.10;99.90
10231;DHT22;62604;49.432;8.680;2024-01-30T05:46:31;5.10;99.90
10231;DHT22;62604;49.432;8.680;2024-01-30T05:48:59;5.10;99.90
10231;DHT22;62604;49.432;8.680;2024-01-30T05:51:26;5.20;99.90
10231;DHT22;62604;49.432;8.680;2024-01-30T05:53:55;5.20;99.90
10231;DHT22;62604;49.432;8.680;2024-01-30T05:56:23;5.20;99.90
10231;DHT22;62604;49.432;8.680;2024-01-30T05:58:50;5.20;99.90
10231;DHT22;62604;49.432;8.680;2024-01-30T06:01:17;5.20;99.90
10231;DHT22;62604;49.432;8.680;2024-01-30T06:03:44;5.20;99.90
10231;DHT22;62604;49.432;8.680;2024-01-30T06:06:12;5.10;99.90
10231;DHT22;62604;49.432;8.680;2024-01-30T06:08:39;5.10;99.90
10231;DHT22;62604;49.432;8.680;2024-01-30T06:11:10;5.10;99.90
10231;DHT22;62604;49.432;8.680;2024-01-30T06:13:38;5.10;99.90
10231;DHT22;62604;49.432;8.680;2024-01-30T06:16:10;5.10;99.90
10231;DHT22;62604;49.432;8.680;2024-01-30T06:18:37;5.10;99.90
10231;DHT22;62604;49.432;8.680;2024-01-30T06:21:06;5.10;99.90
10231;DHT22;62604;49.432;8.680;2024-01-30T06:23:36;5.00;99.90
10231;DHT22;62604;49.432;8.680;2024-01-30T06:26:03;5.00;99.90
10231;DHT22;62604;49.432;8.680;2024-01-30T06:28:30;4.90;99.90
10231;DHT22;62604;49.432;8.680;2024-01-30T06:30:58;4.90;99.90
10231;DHT22;62604;49.432;8.680;2024-01-30T06:33:25;4.90;99.90
10231;DHT22;62604;49.432;8.680;2024-01-30T06:35:52;4.80;99.90
10231;DHT22;62604;49.432;8.680;2024-01-30T06:38:19;4.80;99.90
10231;DHT22;62604;49.432;8.680;2024-01-30T06:40:47;4.80;99.90
10231;DHT22;62604;49.432;8.680;2024-01-30T06:43:14;4.80;99.90
10231;DHT22;62604;49.432;8.680;2024-01-30T06:45:41;4.80;99.90
10231;DHT22;62604;49.432;8.680;2024-01-30T06:48:08;4.80;99.90
10231;DHT22;62604;49.432;8.680;2024-01-30T06:50:38;4.80;99.90
10231;DHT22;62604;49.432;8.680;2024-01-30T06:53:08;4.80;99.90
10231;DHT22;62604;49.432;8.680;2024-01-30T06:55:38;4.80;99.90
10231;DHT22;62604;49.432;8.680;2024-01-30T06:58:15;4.80;99.90
10231;DHT22;62604;49.432;8.680;2024-01-30T07:00:42;4.80;99.90
10231;DHT22;62604;49.432;8.680;2024-01-30T07:03:09;4.80;99.90
10231;DHT22;62604;49.432;8.680;2024-01-30T07:05:36;4.80;99.90
10231;DHT22;62604;49.432;8.680;2024-01-30T07:08:04;4.80;99.90
10231;DHT22;62604;49.432;8.680;2024-01-30T07:10:31;4.80;99.90
10231;DHT22;62604;49.432;8.680;2024-01-30T07:12:58;4.90;99.90
10231;DHT22;62604;49.432;8.680;2024-01-30T07:15:26;4.90;99.90
10231;DHT22;62604;49.432;8.680;2024-01-30T07:17:53;5.00;99.90
10231;DHT22;62604;49.432;8.680;2024-01-30T07:20:20;5.00;99.90
10231;DHT22;62604;49.432;8.680;2024-01-30T07:22:47;5.10;99.90
10231;DHT22;62604;49.432;8.680;2024-01-30T07:25:14;5.10;99.90
10231;DHT22;62604;49.432;8.680;2024-01-30T07:27:42;5.10;99.60
10231;DHT22;62604;49.432;8.680;2024-01-30T07:30:09;5.20;98.50
10231;DHT22;62604;49.432;8.680;2024-01-30T07:32:38;5.20;98.30
10231;DHT22;62604;49.432;8.680;2024-01-30T07:35:06;5.20;97.70
10231;DHT22;62604;49.432;8.680;2024-01-30T07:37:36;5.30;97.80
10231;DHT22;62604;49.432;8.680;2024-01-30T07:40:04;5.30;97.60
10231;DHT22;62604;49.432;8.680;2024-01-30T07:42:31;5.40;97.50
10231;DHT22;62604;49.432;8.680;2024-01-30T07:44:58;5.40;97.60
10231;DHT22;62604;49.432;8.680;2024-01-30T07:47:25;5.50;97.60
10231;DHT22;62604;49.432;8.680;2024-01-30T07:49:54;5.50;96.30
10231;DHT22;62604;49.432;8.680;2024-01-30T07:52:22;5.60;96.10
10231;DHT22;62604;49.432;8.680;2024-01-30T07:58:12;5.70;95.30
10231;DHT22;62604;49.432;8.680;2024-01-30T08:00:38;5.80;95.20
10231;DHT22;62604;49.432;8.680;2024-01-30T08:03:06;5.80;95.40
10231;DHT22;62604;49.432;8.680;2024-01-30T08:05:34;5.90;95.60
10231;DHT22;62604;49.432;8.680;2024-01-30T08:08:02;5.90;94.70
10231;DHT22;62604;49.432;8.680;2024-01-30T08:10:31;6.10;94.20
10231;DHT22;62604;49.432;8.680;2024-01-30T08:13:00;6.20;94.40
10231;DHT22;62604;49.432;8.680;2024-01-30T08:15:29;6.30;94.20
10231;DHT22;62604;49.432;8.680;2024-01-30T08:17:56;6.30;93.80
10231;DHT22;62604;49.432;8.680;2024-01-30T08:20:24;6.40;93.20
10231;DHT22;62604;49.432;8.680;2024-01-30T08:22:54;6.50;92.90
10231;DHT22;62604;49.432;8.680;2024-01-30T08:25:21;6.50;92.80
10231;DHT22;62604;49.432;8.680;2024-01-30T08:27:48;6.60;93.00
10231;DHT22;62604;49.432;8.680;2024-01-30T08:30:15;6.60;92.80
10231;DHT22;62604;49.432;8.680;2024-01-30T08:32:42;6.70;92.60
10231;DHT22;62604;49.432;8.680;2024-01-30T08:35:09;6.80;92.90
10231;DHT22;62604;49.432;8.680;2024-01-30T08:37:39;6.90;92.40
10231;DHT22;62604;49.432;8.680;2024-01-30T08:40:21;6.90;92.00
10231;DHT22;62604;49.432;8.680;2024-01-30T08:42:47;7.00;91.40
10231;DHT22;62604;49.432;8.680;2024-01-30T08:45:15;7.10;91.40
10231;DHT22;62604;49.432;8.680;2024-01-30T08:47:42;7.20;91.20
10231;DHT22;62604;49.432;8.680;2024-01-30T08:50:09;7.30;91.20
10231;DHT22;62604;49.432;8.680;2024-01-30T08:52:39;7.40;90.70
10231;DHT22;62604;49.432;8.680;2024-01-30T08:55:16;7.50;90.60
10231;DHT22;62604;49.432;8.680;2024-01-30T08:57:43;7.60;90.50
10231;DHT22;62604;49.432;8.680;2024-01-30T09:00:13;7.70;90.30
10231;DHT22;62604;49.432;8.680;2024-01-30T09:02:40;7.80;89.40
10231;DHT22;62604;49.432;8.680;2024-01-30T09:05:08;7.90;88.80
10231;DHT22;62604;49.432;8.680;2024-01-30T09:07:34;8.00;89.00
10231;DHT22;62604;49.432;8.680;2024-01-30T09:10:02;8.00;87.70
10231;DHT22;62604;49.432;8.680;2024-01-30T09:12:30;8.10;87.20
10231;DHT22;62604;49.432;8.680;2024-01-30T09:14:57;8.10;86.30
10231;DHT22;62604;49.432;8.680;2024-01-30T09:17:25;8.10;86.40
10231;DHT22;62604;49.432;8.680;2024-01-30T09:19:52;8.10;85.90
10231;DHT22;62604;49.432;8.680;2024-01-30T09:22:19;8.10;85.60
10231;DHT22;62604;49.432;8.680;2024-01-30T09:24:46;8.10;85.60
10231;DHT22;62604;49.432;8.680;2024-01-30T09:27:13;8.20;86.20
10231;DHT22;62604;49.432;8.680;2024-01-30T09:29:41;8.20;85.30
10231;DHT22;62604;49.432;8.680;2024-01-30T09:32:08;8.20;84.90
10231;DHT22;62604;49.432;8.680;2024-01-30T09:34:35;8.20;84.90
10231;DHT22;62604;49.432;8.680;2024-01-30T09:37:03;8.20;85.00
10231;DHT22;62604;49.432;8.680;2024-01-30T09:39:30;8.20;84.70
10231;DHT22;62604;49.432;8.680;2024-01-30T09:42:03;8.30;84.10
10231;DHT22;62604;49.432;8.680;2024-01-30T09:44:33;8.30;84.50
10231;DHT22;62604;49.432;8.680;2024-01-30T09:47:03;8.30;84.30
10231;DHT22;62604;49.432;8.680;2024-01-30T09:49:32;8.30;84.10
10231;DHT22;62604;49.432;8.680;2024-01-30T09:52:00;8.40;84.00
10231;DHT22;62604;49.432;8.680;2024-01-30T09:54:29;8.40;84.00
10231;DHT22;62604;49.432;8.680;2024-01-30T09:56:57;8.40;83.80
10231;DHT22;62604;49.432;8.680;2024-01-30T09:59:24;8.50;83.50
10231;DHT22;62604;49.432;8.680;2024-01-30T10:01:51;8.60;83.10
10231;DHT22;62604;49.432;8.680;2024-01-30T10:04:19;8.60;82.90
10231;DHT22;62604;49.432;8.680;2024-01-30T10:06:47;8.60;82.50
10231;DHT22;62604;49.432;8.680;2024-01-30T10:09:14;8.70;82.90
10231;DHT22;62604;49.432;8.680;2024-01-30T10:11:40;8.70;82.40
10231;DHT22;62604;49.432;8.680;2024-01-30T10:14:07;8.80;81.60
10231;DHT22;62604;49.432;8.680;2024-01-30T10:16:34;8.80;81.50
10231;DHT22;62604;49.432;8.680;2024-01-30T10:19:01;8.80;81.80
10231;DHT22;62604;49.432;8.680;2024-01-30T10:21:31;8.80;81.30
10231;DHT22;62604;49.432;8.680;2024-01-30T10:23:58;8.90;81.40
10231;DHT22;62604;49.432;8.680;2024-01-30T10:26:26;9.00;81.60
10231;DHT22;62604;49.432;8.680;2024-01-30T10:28:55;9.10;81.10
10231;DHT22;62604;49.432;8.680;2024-01-30T10:31:22;9.10;80.20
10231;DHT22;62604;49.432;8.680;2024-01-30T10:33:49;9.10;80.40
10231;DHT22;62604;49.432;8.680;2024-01-30T10:36:17;9.20;80.20
10231;DHT22;62604;49.432;8.680;2024-01-30T10:38:47;9.30;79.50
10231;DHT22;62604;49.432;8.680;2024-01-30T10:41:19;9.30;79.10
10231;DHT22;62604;49.432;8.680;2024-01-30T10:43:58;9.40;77.70
10231;DHT22;62604;49.432;8.680;2024-01-30T10:46:31;9.50;73.90
10231;DHT22;62604;49.432;8.680;2024-01-30T10:48:59;9.60;1.00
10231;DHT22;62604;49.432;8.680;2024-01-30T10:51:27;9.50;1.00
10231;DHT22;62604;49.432;8.680;2024-01-30T10:53:56;9.60;1.00
10231;DHT22;62604;49.432;8.680;2024-01-30T10:56:24;9.60;1.00
10231;DHT22;62604;49.432;8.680;2024-01-30T10:58:53;9.60;1.00
10231;DHT22;62604;49.432;8.680;2024-01-30T11:01:22;9.60;1.00
10231;DHT22;62604;49.432;8.680;2024-01-30T11:03:51;9.60;1.00
10231;DHT22;62604;49.432;8.680;2024-01-30T11:06:22;9.60;1.00
10231;DHT22;62604;49.432;8.680;2024-01-30T11:09:01;9.70;1.00
10231;DHT22;62604;49.432;8.680;2024-01-30T11:11:50;9.70;1.00
10231;DHT22;62604;49.432;8.680;2024-01-30T11:14:23;9.80;1.00
10231;DHT22;62604;49.432;8.680;2024-01-30T11:16:51;9.80;1.00
10231;DHT22;62604;49.432;8.680;2024-01-30T11:19:22;9.80;1.00
10231;DHT22;62604;49.432;8.680;2024-01-30T11:21:50;9.90;1.00
10231;DHT22;62604;49.432;8.680;2024-01-30T11:24:21;9.90;1.00
10231;DHT22;62604;49.432;8.680;2024-01-30T11:26:48;9.90;1.00
10231;DHT22;62604;49.432;8.680;2024-01-30T11:29:17;9.90;1.00
10231;DHT22;62604;49.432;8.680;2024-01-30T11:31:52;9.90;1.00
10231;DHT22;62604;49.432;8.680;2024-01-30T11:34:20;10.00;1.00
10231;DHT22;62604;49.432;8.680;2024-01-30T11:36:52;10.00;1.00
10231;DHT22;62604;49.432;8.680;2024-01-30T11:39:22;10.00;1.00
10231;DHT22;62604;49.432;8.680;2024-01-30T11:41:51;10.00;1.00
10231;DHT22;62604;49.432;8.680;2024-01-30T11:44:18;10.00;1.00
10231;DHT22;62604;49.432;8.680;2024-01-30T11:46:47;9.90;1.00
10231;DHT22;62604;49.432;8.680;2024-01-30T11:49:15;9.90;1.00
10231;DHT22;62604;49.432;8.680;2024-01-30T11:51:42;9.90;1.00
10231;DHT22;62604;49.432;8.680;2024-01-30T11:54:10;9.90;1.00
10231;DHT22;62604;49.432;8.680;2024-01-30T11:56:38;9.90;1.00
10231;DHT22;62604;49.432;8.680;2024-01-30T11:59:05;9.90;1.00
10231;DHT22;62604;49.432;8.680;2024-01-30T12:01:33;9.90;1.00
10231;DHT22;62604;49.432;8.680;2024-01-30T12:04:00;9.90;1.00
10231;DHT22;62604;49.432;8.680;2024-01-30T12:06:27;9.90;1.00
10231;DHT22;62604;49.432;8.680;2024-01-30T12:08:58;9.90;1.00
10231;DHT22;62604;49.432;8.680;2024-01-30T12:11:25;9.90;1.00
10231;DHT22;62604;49.432;8.680;2024-01-30T12:13:54;9.90;1.00
10231;DHT22;62604;49.432;8.680;2024-01-30T12:16:21;9.90;1.00
10231;DHT22;62604;49.432;8.680;2024-01-30T12:18:48;10.00;1.00
10231;DHT22;62604;49.432;8.680;2024-01-30T12:21:16;10.00;1.00
10231;DHT22;62604;49.432;8.680;2024-01-30T12:23:45;10.00;1.00
10231;DHT22;62604;49.432;8.680;2024-01-30T12:26:12;10.00;1.00
10231;DHT22;62604;49.432;8.680;2024-01-30T12:28:47;10.00;1.00
10231;DHT22;62604;49.432;8.680;2024-01-30T12:31:16;10.00;1.00
10231;DHT22;62604;49.432;8.680;2024-01-30T12:33:43;10.00;1.00
10231;DHT22;62604;49.432;8.680;2024-01-30T12:36:11;10.10;1.00
10231;DHT22;62604;49.432;8.680;2024-01-30T12:38:38;10.10;1.00
10231;DHT22;62604;49.432;8.680;2024-01-30T12:41:07;10.20;1.00
10231;DHT22;62604;49.432;8.680;2024-01-30T12:43:35;10.30;1.00
10231;DHT22;62604;49.432;8.680;2024-01-30T12:46:03;10.40;1.00
10231;DHT22;62604;49.432;8.680;2024-01-30T12:48:31;10.40;1.00
10231;DHT22;62604;49.432;8.680;2024-01-30T12:50:58;10.50;1.00
10231;DHT22;62604;49.432;8.680;2024-01-30T12:53:26;10.50;1.00
10231;DHT22;62604;49.432;8.680;2024-01-30T12:55:53;10.60;1.00
10231;DHT22;62604;49.432;8.680;2024-01-30T12:58:20;10.70;1.00
10231;DHT22;62604;49.432;8.680;2024-01-30T13:00:47;10.70;1.00
10231;DHT22;62604;49.432;8.680;2024-01-30T13:03:14;10.80;1.00
10231;DHT22;62604;49.432;8.680;2024-01-30T13:05:42;10.90;1.00
10231;DHT22;62604;49.432;8.680;2024-01-30T13:08:09;10.90;1.00
10231;DHT22;62604;49.432;8.680;2024-01-30T13:10:36;11.00;1.00
10231;DHT22;62604;49.432;8.680;2024-01-30T13:13:04;11.00;1.00
10231;DHT22;62604;49.432;8.680;2024-01-30T13:15:31;11.10;1.00
10231;DHT22;62604;49.432;8.680;2024-01-30T13:17:58;11.10;1.00
10231;DHT22;62604;49.432;8.680;2024-01-30T13:20:25;11.10;1.00
10231;DHT22;62604;49.432;8.680;2024-01-30T13:22:53;11.20;1.00
10231;DHT22;62604;49.432;8.680;2024-01-30T13:25:20;11.10;1.00
10231;DHT22;62604;49.432;8.680;2024-01-30T13:27:47;11.10;1.00
10231;DHT22;62604;49.432;8.680;2024-01-30T13:30:15;11.20;1.00
10231;DHT22;62604;49.432;8.680;2024-01-30T13:32:41;11.20;1.00
10231;DHT22;62604;49.432;8.680;2024-01-30T13:35:09;11.20;1.00
10231;DHT22;62604;49.432;8.680;2024-01-30T13:37:36;11.20;1.00
10231;DHT22;62604;49.432;8.680;2024-01-30T13:40:06;11.20;1.00
10231;DHT22;62604;49.432;8.680;2024-01-30T13:42:34;11.10;1.00
10231;DHT22;62604;49.432;8.680;2024-01-30T13:45:01;11.10;1.00
10231;DHT22;62604;49.432;8.680;2024-01-30T13:47:29;11.10;1.00
10231;DHT22;62604;49.432;8.680;2024-01-30T13:49:56;11.10;1.00
10231;DHT22;62604;49.432;8.680;2024-01-30T13:52:23;11.10;1.00
10231;DHT22;62604;49.432;8.680;2024-01-30T13:54:49;11.10;1.00
10231;DHT22;62604;49.432;8.680;2024-01-30T13:57:18;11.10;1.00
10231;DHT22;62604;49.432;8.680;2024-01-30T13:59:45;11.10;1.00
10231;DHT22;62604;49.432;8.680;2024-01-30T14:02:12;11.10;1.00
10231;DHT22;62604;49.432;8.680;2024-01-30T14:04:39;11.10;1.00
10231;DHT22;62604;49.432;8.680;2024-01-30T14:07:06;11.10;1.00
10231;DHT22;62604;49.432;8.680;2024-01-30T14:09:33;11.20;1.00
10231;DHT22;62604;49.432;8.680;2024-01-30T14:12:00;11.20;1.00
10231;DHT22;62604;49.432;8.680;2024-01-30T14:14:28;11.20;1.00
10231;DHT22;62604;49.432;8.680;2024-01-30T14:16:55;11.20;1.00
10231;DHT22;62604;49.432;8.680;2024-01-30T14:19:22;11.20;1.00
10231;DHT22;62604;49.432;8.680;2024-01-30T14:21:49;11.20;1.00
10231;DHT22;62604;49.432;8.680;2024-01-30T14:24:16;11.20;1.00
10231;DHT22;62604;49.432;8.680;2024-01-30T14:26:44;11.20;1.00
10231;DHT22;62604;49.432;8.680;2024-01-30T14:29:11;11.20;1.00
10231;DHT22;62604;49.432;8.680;2024-01-30T14:31:39;11.20;1.00
10231;DHT22;62604;49.432;8.680;2024-01-30T14:34:06;11.20;1.00
10231;DHT22;62604;49.432;8.680;2024-01-30T14:36:34;11.20;1.00
10231;DHT22;62604;49.432;8.680;2024-01-30T14:39:01;11.20;1.00
10231;DHT22;62604;49.432;8.680;2024-01-30T14:41:28;11.20;1.00
10231;DHT22;62604;49.432;8.680;2024-01-30T14:43:55;11.20;1.00
10231;DHT22;62604;49.432;8.680;2024-01-30T14:46:22;11.20;1.00
10231;DHT22;62604;49.432;8.680;2024-01-30T14:48:51;11.20;1.00
10231;DHT22;62604;49.432;8.680;2024-01-30T14:51:18;11.10;1.00
10231;DHT22;62604;49.432;8.680;2024-01-30T14:53:45;11.10;1.00
10231;DHT22;62604;49.432;8.680;2024-01-30T14:56:12;11.10;1.00
10231;DHT22;62604;49.432;8.680;2024-01-30T14:58:40;11.10;1.00
10231;DHT22;62604;49.432;8.680;2024-01-30T15:01:09;11.00;1.00
10231;DHT22;62604;49.432;8.680;2024-01-30T15:03:38;11.10;1.00
10231;DHT22;62604;49.432;8.680;2024-01-30T15:06:07;11.10;1.00
10231;DHT22;62604;49.432;8.680;2024-01-30T15:08:36;11.00;1.00
10231;DHT22;62604;49.432;8.680;2024-01-30T15:11:04;11.00;1.00
10231;DHT22;62604;49.432;8.680;2024-01-30T15:13:33;11.00;1.00
10231;DHT22;62604;49.432;8.680;2024-01-30T15:16:03;11.00;1.00
10231;DHT22;62604;49.432;8.680;2024-01-30T15:18:32;11.00;1.00
10231;DHT22;62604;49.432;8.680;2024-01-30T15:21:01;11.00;1.00
10231;DHT22;62604;49.432;8.680;2024-01-30T15:23:31;11.00;1.00
10231;DHT22;62604;49.432;8.680;2024-01-30T15:25:58;11.00;1.00
10231;DHT22;62604;49.432;8.680;2024-01-30T15:28:34;11.00;1.00
10231;DHT22;62604;49.432;8.680;2024-01-30T15:31:10;11.00;1.00
10231;DHT22;62604;49.432;8.680;2024-01-30T15:33:40;11.00;1.00
10231;DHT22;62604;49.432;8.680;2024-01-30T15:36:11;11.00;1.00
10231;DHT22;62604;49.432;8.680;2024-01-30T15:38:40;11.00;1.00
10231;DHT22;62604;49.432;8.680;2024-01-30T15:41:07;11.00;1.00
10231;DHT22;62604;49.432;8.680;2024-01-30T15:43:36;11.00;1.00
10231;DHT22;62604;49.432;8.680;2024-01-30T15:46:03;11.00;1.00
10231;DHT22;62604;49.432;8.680;2024-01-30T15:48:31;11.00;1.00
10231;DHT22;62604;49.432;8.680;2024-01-30T15:51:00;11.00;1.00
10231;DHT22;62604;49.432;8.680;2024-01-30T15:53:28;11.00;1.00
10231;DHT22;62604;49.432;8.680;2024-01-30T15:55:58;11.00;1.00
10231;DHT22;62604;49.432;8.680;2024-01-30T15:58:27;11.00;1.00